sensor_id;sensor_type;location;lat;lon;timestamp;temperature;humidity
52267;DHT22;38223;50.940;4.034;2023-02-23T00:02:11;10.80;99.90
52267;DHT22;38223;50.940;4.034;2023-02-23T00:04:38;10.80;99.90
52267;DHT22;38223;50.940;4.034;2023-02-23T00:07:07;10.60;99.90
52267;DHT22;38223;50.940;4.034;2023-02-23T00:09:35;10.50;99.90
52267;DHT22;38223;50.940;4.034;2023-02-23T00:12:05;10.40;99.90
52267;DHT22;38223;50.940;4.034;2023-02-23T00:14:34;10.50;99.90
52267;DHT22;38223;50.940;4.034;2023-02-23T00:17:05;10.60;99.90
52267;DHT22;38223;50.940;4.034;2023-02-23T00:19:37;10.70;99.90
52267;DHT22;38223;50.940;4.034;2023-02-23T00:22:09;10.70;99.90
52267;DHT22;38223;50.940;4.034;2023-02-23T00:24:42;10.60;99.90
52267;DHT22;38223;50.940;4.034;2023-02-23T00:27:11;10.70;99.90
52267;DHT22;38223;50.940;4.034;2023-02-23T00:29:40;10.60;99.90
52267;DHT22;38223;50.940;4.034;2023-02-23T00:32:07;10.60;99.90
52267;DHT22;38223;50.940;4.034;2023-02-23T00:34:37;10.60;99.90
52267;DHT22;38223;50.940;4.034;2023-02-23T00:37:07;10.70;99.90
52267;DHT22;38223;50.940;4.034;2023-02-23T00:39:39;10.60;99.90
52267;DHT22;38223;50.940;4.034;2023-02-23T00:42:12;10.60;99.90
52267;DHT22;38223;50.940;4.034;2023-02-23T00:44:41;10.60;99.90
52267;DHT22;38223;50.940;4.034;2023-02-23T00:47:09;10.60;99.90
52267;DHT22;38223;50.940;4.034;2023-02-23T00:49:36;10.70;99.90
52267;DHT22;38223;50.940;4.034;2023-02-23T00:52:09;10.60;99.90
52267;DHT22;38223;50.940;4.034;2023-02-23T00:54:41;10.50;99.90
52267;DHT22;38223;50.940;4.034;2023-02-23T00:57:16;10.40;99.90
52267;DHT22;38223;50.940;4.034;2023-02-23T00:59:45;10.30;99.90
52267;DHT22;38223;50.940;4.034;2023-02-23T01:02:19;10.30;99.90
52267;DHT22;38223;50.940;4.034;2023-02-23T01:04:48;10.20;99.90
52267;DHT22;38223;50.940;4.034;2023-02-23T01:07:23;10.20;99.90
52267;DHT22;38223;50.940;4.034;2023-02-23T01:09:52;10.10;99.90
52267;DHT22;38223;50.940;4.034;2023-02-23T01:12:21;10.00;99.90
52267;DHT22;38223;50.940;4.034;2023-02-23T01:14:54;10.10;99.90
52267;DHT22;38223;50.940;4.034;2023-02-23T01:17:26;10.00;99.90
52267;DHT22;38223;50.940;4.034;2023-02-23T01:19:58;10.00;99.90
52267;DHT22;38223;50.940;4.034;2023-02-23T01:22:31;9.90;99.90
52267;DHT22;38223;50.940;4.034;2023-02-23T01:25:01;9.90;99.90
52267;DHT22;38223;50.940;4.034;2023-02-23T01:27:31;9.90;99.90
52267;DHT22;38223;50.940;4.034;2023-02-23T01:30:04;9.80;99.90
52267;DHT22;38223;50.940;4.034;2023-02-23T01:32:35;9.80;99.90
52267;DHT22;38223;50.940;4.034;2023-02-23T01:35:08;9.90;99.90
52267;DHT22;38223;50.940;4.034;2023-02-23T01:37:41;10.00;99.90
52267;DHT22;38223;50.940;4.034;2023-02-23T01:40:21;10.00;99.90
52267;DHT22;38223;50.940;4.034;2023-02-23T01:42:51;10.00;99.90
52267;DHT22;38223;50.940;4.034;2023-02-23T01:45:35;10.00;99.90
52267;DHT22;38223;50.940;4.034;2023-02-23T01:48:17;9.90;99.90
52267;DHT22;38223;50.940;4.034;2023-02-23T01:51:05;10.00;99.90
52267;DHT22;38223;50.940;4.034;2023-02-23T01:53:39;10.00;99.90
52267;DHT22;38223;50.940;4.034;2023-02-23T01:56:13;10.10;99.90
52267;DHT22;38223;50.940;4.034;2023-02-23T01:58:43;10.00;99.90
52267;DHT22;38223;50.940;4.034;2023-02-23T02:01:13;10.20;99.90
52267;DHT22;38223;50.940;4.034;2023-02-23T02:03:44;10.10;99.90
52267;DHT22;38223;50.940;4.034;2023-02-23T02:06:14;10.20;99.90
52267;DHT22;38223;50.940;4.034;2023-02-23T02:08:45;10.30;99.90
52267;DHT22;38223;50.940;4.034;2023-02-23T02:11:18;10.30;99.90
52267;DHT22;38223;50.940;4.034;2023-02-23T02:13:58;10.30;99.90
52267;DHT22;38223;50.940;4.034;2023-02-23T02:38:42;10.20;99.90
52267;DHT22;38223;50.940;4.034;2023-02-23T02:41:24;10.20;99.90
52267;DHT22;38223;50.940;4.034;2023-02-23T02:44:14;10.20;99.90
52267;DHT22;38223;50.940;4.034;2023-02-23T02:46:45;10.30;99.90
52267;DHT22;38223;50.940;4.034;2023-02-23T02:49:21;10.30;99.90
52267;DHT22;38223;50.940;4.034;2023-02-23T02:52:08;10.20;99.90
52267;DHT22;38223;50.940;4.034;2023-02-23T02:54:47;10.20;99.90
52267;DHT22;38223;50.940;4.034;2023-02-23T02:57:13;10.00;99.90
52267;DHT22;38223;50.940;4.034;2023-02-23T02:59:47;10.00;99.90
52267;DHT22;38223;50.940;4.034;2023-02-23T03:02:38;10.10;99.90
52267;DHT22;38223;50.940;4.034;2023-02-23T03:05:50;10.10;99.90
52267;DHT22;38223;50.940;4.034;2023-02-23T03:08:33;10.20;99.90
52267;DHT22;38223;50.940;4.034;2023-02-23T03:11:15;10.20;99.90
52267;DHT22;38223;50.940;4.034;2023-02-23T03:14:37;10.30;99.90
52267;DHT22;38223;50.940;4.034;2023-02-23T03:20:44;10.10;99.90
52267;DHT22;38223;50.940;4.034;2023-02-23T03:23:50;10.10;99.90
52267;DHT22;38223;50.940;4.034;2023-02-23T03:26:39;10.30;99.90
52267;DHT22;38223;50.940;4.034;2023-02-23T03:29:37;10.40;99.90
52267;DHT22;38223;50.940;4.034;2023-02-23T03:38:33;10.20;99.90
52267;DHT22;38223;50.940;4.034;2023-02-23T03:41:20;10.30;99.90
52267;DHT22;38223;50.940;4.034;2023-02-23T03:44:17;10.20;99.90
52267;DHT22;38223;50.940;4.034;2023-02-23T03:47:03;10.40;99.90
52267;DHT22;38223;50.940;4.034;2023-02-23T03:49:49;10.40;99.90
52267;DHT22;38223;50.940;4.034;2023-02-23T03:52:48;10.20;99.90
52267;DHT22;38223;50.940;4.034;2023-02-23T03:55:35;10.10;99.90
52267;DHT22;38223;50.940;4.034;2023-02-23T03:58:26;10.00;99.90
52267;DHT22;38223;50.940;4.034;2023-02-23T04:01:10;10.00;99.90
52267;DHT22;38223;50.940;4.034;2023-02-23T04:03:57;9.90;99.90
52267;DHT22;38223;50.940;4.034;2023-02-23T04:06:45;10.00;99.90
52267;DHT22;38223;50.940;4.034;2023-02-23T04:09:31;10.10;99.90
52267;DHT22;38223;50.940;4.034;2023-02-23T04:12:27;10.10;99.90
52267;DHT22;38223;50.940;4.034;2023-02-23T04:15:38;10.20;99.90
52267;DHT22;38223;50.940;4.034;2023-02-23T04:17:53;10.30;99.90
52267;DHT22;38223;50.940;4.034;2023-02-23T04:20:26;10.50;99.90
52267;DHT22;38223;50.940;4.034;2023-02-23T04:22:53;10.40;99.90
52267;DHT22;38223;50.940;4.034;2023-02-23T04:25:21;10.50;99.90
52267;DHT22;38223;50.940;4.034;2023-02-23T04:27:49;10.40;99.90
52267;DHT22;38223;50.940;4.034;2023-02-23T04:30:17;10.70;99.90
52267;DHT22;38223;50.940;4.034;2023-02-23T04:32:49;10.60;99.90
52267;DHT22;38223;50.940;4.034;2023-02-23T04:35:18;10.50;99.90
52267;DHT22;38223;50.940;4.034;2023-02-23T04:37:46;10.40;99.90
52267;DHT22;38223;50.940;4.034;2023-02-23T04:40:13;10.40;99.90
52267;DHT22;38223;50.940;4.034;2023-02-23T04:42:41;10.30;99.90
52267;DHT22;38223;50.940;4.034;2023-02-23T04:45:09;10.50;99.90
52267;DHT22;38223;50.940;4.034;2023-02-23T04:47:37;10.50;99.90
52267;DHT22;38223;50.940;4.034;2023-02-23T04:50:05;10.40;99.90
52267;DHT22;38223;50.940;4.034;2023-02-23T04:52:33;10.50;99.90
52267;DHT22;38223;50.940;4.034;2023-02-23T04:55:06;10.70;99.90
52267;DHT22;38223;50.940;4.034;2023-02-23T04:57:34;10.60;99.90
52267;DHT22;38223;50.940;4.034;2023-02-23T05:00:02;10.30;99.90
52267;DHT22;38223;50.940;4.034;2023-02-23T05:02:30;10.30;99.90
52267;DHT22;38223;50.940;4.034;2023-02-23T05:04:58;10.30;99.90
52267;DHT22;38223;50.940;4.034;2023-02-23T05:07:25;10.20;99.90
52267;DHT22;38223;50.940;4.034;2023-02-23T05:09:53;10.20;99.90
52267;DHT22;38223;50.940;4.034;2023-02-23T05:12:21;10.30;99.90
52267;DHT22;38223;50.940;4.034;2023-02-23T05:14:48;10.30;99.90
52267;DHT22;38223;50.940;4.034;2023-02-23T05:17:16;10.50;99.90
52267;DHT22;38223;50.940;4.034;2023-02-23T05:19:44;10.30;99.90
52267;DHT22;38223;50.940;4.034;2023-02-23T05:22:12;9.90;99.90
52267;DHT22;38223;50.940;4.034;2023-02-23T05:24:40;9.80;99.90
52267;DHT22;38223;50.940;4.034;2023-02-23T05:27:08;9.80;99.90
52267;DHT22;38223;50.940;4.034;2023-02-23T05:29:36;9.90;99.90
52267;DHT22;38223;50.940;4.034;2023-02-23T05:32:05;9.90;99.90
52267;DHT22;38223;50.940;4.034;2023-02-23T05:34:33;10.00;99.90
52267;DHT22;38223;50.940;4.034;2023-02-23T05:37:03;10.00;99.90
52267;DHT22;38223;50.940;4.034;2023-02-23T05:39:31;10.00;99.90
52267;DHT22;38223;50.940;4.034;2023-02-23T05:42:01;10.10;99.90
52267;DHT22;38223;50.940;4.034;2023-02-23T05:44:28;10.00;99.90
52267;DHT22;38223;50.940;4.034;2023-02-23T05:46:56;10.00;99.90
52267;DHT22;38223;50.940;4.034;2023-02-23T05:49:24;10.00;99.90
52267;DHT22;38223;50.940;4.034;2023-02-23T05:51:53;10.00;99.90
52267;DHT22;38223;50.940;4.034;2023-02-23T05:54:20;9.90;99.90
52267;DHT22;38223;50.940;4.034;2023-02-23T05:56:48;9.90;99.90
52267;DHT22;38223;50.940;4.034;2023-02-23T05:59:16;10.00;99.90
52267;DHT22;38223;50.940;4.034;2023-02-23T06:01:43;10.00;99.90
52267;DHT22;38223;50.940;4.034;2023-02-23T06:04:11;10.10;99.90
52267;DHT22;38223;50.940;4.034;2023-02-23T06:06:39;10.10;99.90
52267;DHT22;38223;50.940;4.034;2023-02-23T06:09:07;10.10;99.90
52267;DHT22;38223;50.940;4.034;2023-02-23T06:11:34;9.80;99.90
52267;DHT22;38223;50.940;4.034;2023-02-23T06:14:03;9.70;99.90
52267;DHT22;38223;50.940;4.034;2023-02-23T06:16:32;9.80;99.90
52267;DHT22;38223;50.940;4.034;2023-02-23T06:19:00;10.00;99.90
52267;DHT22;38223;50.940;4.034;2023-02-23T06:21:29;10.30;99.90
52267;DHT22;38223;50.940;4.034;2023-02-23T06:23:58;10.50;99.90
52267;DHT22;38223;50.940;4.034;2023-02-23T06:26:27;10.50;99.90
52267;DHT22;38223;50.940;4.034;2023-02-23T06:28:54;10.50;99.90
52267;DHT22;38223;50.940;4.034;2023-02-23T06:31:23;10.70;99.90
52267;DHT22;38223;50.940;4.034;2023-02-23T06:33:51;10.70;99.90
52267;DHT22;38223;50.940;4.034;2023-02-23T06:36:25;10.60;99.90
52267;DHT22;38223;50.940;4.034;2023-02-23T06:38:58;10.40;99.90
52267;DHT22;38223;50.940;4.034;2023-02-23T06:41:31;10.10;99.90
52267;DHT22;38223;50.940;4.034;2023-02-23T06:44:02;10.00;99.90
52267;DHT22;38223;50.940;4.034;2023-02-23T06:46:33;9.90;99.90
52267;DHT22;38223;50.940;4.034;2023-02-23T06:49:03;9.90;99.90
52267;DHT22;38223;50.940;4.034;2023-02-23T06:51:33;9.90;99.90
52267;DHT22;38223;50.940;4.034;2023-02-23T06:54:05;9.90;99.90
52267;DHT22;38223;50.940;4.034;2023-02-23T06:56:38;9.90;99.90
52267;DHT22;38223;50.940;4.034;2023-02-23T06:59:11;10.00;99.90
52267;DHT22;38223;50.940;4.034;2023-02-23T07:01:41;10.00;99.90
52267;DHT22;38223;50.940;4.034;2023-02-23T07:04:13;9.90;99.90
52267;DHT22;38223;50.940;4.034;2023-02-23T07:06:45;9.90;99.90
52267;DHT22;38223;50.940;4.034;2023-02-23T07:09:14;9.80;99.90
52267;DHT22;38223;50.940;4.034;2023-02-23T07:11:42;9.90;99.90
52267;DHT22;38223;50.940;4.034;2023-02-23T07:14:13;10.10;99.90
52267;DHT22;38223;50.940;4.034;2023-02-23T07:16:41;10.00;99.90
52267;DHT22;38223;50.940;4.034;2023-02-23T07:19:08;10.10;99.90
52267;DHT22;38223;50.940;4.034;2023-02-23T07:21:36;10.10;99.90
52267;DHT22;38223;50.940;4.034;2023-02-23T07:24:03;10.10;99.90
52267;DHT22;38223;50.940;4.034;2023-02-23T07:26:32;10.20;99.90
52267;DHT22;38223;50.940;4.034;2023-02-23T07:29:01;10.40;99.90
52267;DHT22;38223;50.940;4.034;2023-02-23T07:31:28;10.40;99.90
52267;DHT22;38223;50.940;4.034;2023-02-23T07:33:56;10.20;99.90
52267;DHT22;38223;50.940;4.034;2023-02-23T07:36:24;10.30;99.90
52267;DHT22;38223;50.940;4.034;2023-02-23T07:38:52;10.30;99.90
52267;DHT22;38223;50.940;4.034;2023-02-23T07:41:20;10.40;99.90
52267;DHT22;38223;50.940;4.034;2023-02-23T07:43:48;10.40;99.90
52267;DHT22;38223;50.940;4.034;2023-02-23T07:46:15;10.50;99.90
52267;DHT22;38223;50.940;4.034;2023-02-23T07:51:31;10.60;99.90
52267;DHT22;38223;50.940;4.034;2023-02-23T07:54:05;10.60;99.90
52267;DHT22;38223;50.940;4.034;2023-02-23T07:56:34;10.70;99.90
52267;DHT22;38223;50.940;4.034;2023-02-23T07:59:02;10.70;99.90
52267;DHT22;38223;50.940;4.034;2023-02-23T08:01:30;10.70;99.90
52267;DHT22;38223;50.940;4.034;2023-02-23T08:03:57;10.70;99.90
52267;DHT22;38223;50.940;4.034;2023-02-23T08:06:26;10.70;99.90
52267;DHT22;38223;50.940;4.034;2023-02-23T08:08:58;10.70;99.90
52267;DHT22;38223;50.940;4.034;2023-02-23T08:11:26;10.80;99.90
52267;DHT22;38223;50.940;4.034;2023-02-23T08:13:57;10.80;99.90
52267;DHT22;38223;50.940;4.034;2023-02-23T08:16:30;10.70;99.90
52267;DHT22;38223;50.940;4.034;2023-02-23T08:18:59;10.60;99.90
52267;DHT22;38223;50.940;4.034;2023-02-23T08:21:27;10.60;99.90
52267;DHT22;38223;50.940;4.034;2023-02-23T08:23:56;10.50;99.90
52267;DHT22;38223;50.940;4.034;2023-02-23T08:26:25;10.40;99.90
52267;DHT22;38223;50.940;4.034;2023-02-23T08:28:53;10.40;99.90
52267;DHT22;38223;50.940;4.034;2023-02-23T08:31:21;10.50;99.90
52267;DHT22;38223;50.940;4.034;2023-02-23T08:33:49;10.70;99.90
52267;DHT22;38223;50.940;4.034;2023-02-23T08:36:18;10.70;99.90
52267;DHT22;38223;50.940;4.034;2023-02-23T08:38:46;10.70;99.90
52267;DHT22;38223;50.940;4.034;2023-02-23T08:41:14;10.80;99.90
52267;DHT22;38223;50.940;4.034;2023-02-23T08:43:42;10.80;99.90
52267;DHT22;38223;50.940;4.034;2023-02-23T08:46:10;10.80;99.90
52267;DHT22;38223;50.940;4.034;2023-02-23T08:48:38;10.90;99.90
52267;DHT22;38223;50.940;4.034;2023-02-23T08:51:06;10.90;99.90
52267;DHT22;38223;50.940;4.034;2023-02-23T08:53:35;10.70;99.90
52267;DHT22;38223;50.940;4.034;2023-02-23T08:56:05;10.70;99.90
52267;DHT22;38223;50.940;4.034;2023-02-23T08:58:34;10.80;99.90
52267;DHT22;38223;50.940;4.034;2023-02-23T09:01:02;10.70;99.90
52267;DHT22;38223;50.940;4.034;2023-02-23T09:03:30;10.70;99.90
52267;DHT22;38223;50.940;4.034;2023-02-23T09:06:12;11.00;99.90
52267;DHT22;38223;50.940;4.034;2023-02-23T09:08:35;11.10;99.90
52267;DHT22;38223;50.940;4.034;2023-02-23T09:11:03;10.90;99.90
52267;DHT22;38223;50.940;4.034;2023-02-23T09:13:30;10.70;99.90
52267;DHT22;38223;50.940;4.034;2023-02-23T09:15:58;10.60;99.90
52267;DHT22;38223;50.940;4.034;2023-02-23T09:18:26;10.40;99.90
52267;DHT22;38223;50.940;4.034;2023-02-23T09:20:55;10.60;99.90
52267;DHT22;38223;50.940;4.034;2023-02-23T09:23:25;10.60;99.90
52267;DHT22;38223;50.940;4.034;2023-02-23T09:25:53;10.50;99.90
52267;DHT22;38223;50.940;4.034;2023-02-23T09:28:21;10.50;99.90
52267;DHT22;38223;50.940;4.034;2023-02-23T09:30:48;10.70;99.90
52267;DHT22;38223;50.940;4.034;2023-02-23T09:33:16;10.50;99.90
52267;DHT22;38223;50.940;4.034;2023-02-23T09:35:44;10.30;99.90
52267;DHT22;38223;50.940;4.034;2023-02-23T09:38:11;10.30;99.90
52267;DHT22;38223;50.940;4.034;2023-02-23T09:40:48;10.30;99.90
52267;DHT22;38223;50.940;4.034;2023-02-23T09:47:15;10.60;99.90
52267;DHT22;38223;50.940;4.034;2023-02-23T09:49:00;10.50;99.90
52267;DHT22;38223;50.940;4.034;2023-02-23T09:51:32;10.20;99.90
52267;DHT22;38223;50.940;4.034;2023-02-23T09:54:04;10.00;99.90
52267;DHT22;38223;50.940;4.034;2023-02-23T09:56:47;10.00;99.90
52267;DHT22;38223;50.940;4.034;2023-02-23T09:59:15;10.00;99.90
52267;DHT22;38223;50.940;4.034;2023-02-23T10:02:00;10.00;99.90
52267;DHT22;38223;50.940;4.034;2023-02-23T10:04:47;9.80;99.90
52267;DHT22;38223;50.940;4.034;2023-02-23T10:18:25;10.10;99.90
52267;DHT22;38223;50.940;4.034;2023-02-23T10:20:59;10.10;99.90
52267;DHT22;38223;50.940;4.034;2023-02-23T10:23:33;10.10;99.90
52267;DHT22;38223;50.940;4.034;2023-02-23T10:26:01;10.10;99.90
52267;DHT22;38223;50.940;4.034;2023-02-23T10:28:32;10.30;99.90
52267;DHT22;38223;50.940;4.034;2023-02-23T10:31:17;10.70;99.90
52267;DHT22;38223;50.940;4.034;2023-02-23T10:33:46;10.50;99.90
52267;DHT22;38223;50.940;4.034;2023-02-23T10:36:42;10.50;99.90
52267;DHT22;38223;50.940;4.034;2023-02-23T10:38:49;10.60;99.90
52267;DHT22;38223;50.940;4.034;2023-02-23T10:41:16;10.60;99.90
52267;DHT22;38223;50.940;4.034;2023-02-23T10:43:45;10.80;99.90
52267;DHT22;38223;50.940;4.034;2023-02-23T10:46:19;11.20;99.90
52267;DHT22;38223;50.940;4.034;2023-02-23T10:48:48;11.30;99.90
52267;DHT22;38223;50.940;4.034;2023-02-23T10:51:23;11.20;99.90
52267;DHT22;38223;50.940;4.034;2023-02-23T10:53:50;11.60;99.90
52267;DHT22;38223;50.940;4.034;2023-02-23T10:56:18;11.60;99.90
52267;DHT22;38223;50.940;4.034;2023-02-23T10:58:52;12.00;99.90
52267;DHT22;38223;50.940;4.034;2023-02-23T11:01:38;11.80;99.90
52267;DHT22;38223;50.940;4.034;2023-02-23T11:04:25;11.60;99.90
52267;DHT22;38223;50.940;4.034;2023-02-23T11:07:08;11.40;99.90
52267;DHT22;38223;50.940;4.034;2023-02-23T11:09:56;11.60;99.90
52267;DHT22;38223;50.940;4.034;2023-02-23T11:12:36;12.00;99.90
52267;DHT22;38223;50.940;4.034;2023-02-23T11:15:29;12.00;99.90
52267;DHT22;38223;50.940;4.034;2023-02-23T11:17:36;11.20;99.90
52267;DHT22;38223;50.940;4.034;2023-02-23T11:20:24;10.80;99.90
52267;DHT22;38223;50.940;4.034;2023-02-23T11:22:47;10.70;99.90
52267;DHT22;38223;50.940;4.034;2023-02-23T11:25:24;10.40;99.90
52267;DHT22;38223;50.940;4.034;2023-02-23T11:27:52;10.50;99.90
52267;DHT22;38223;50.940;4.034;2023-02-23T11:30:25;10.60;99.90
52267;DHT22;38223;50.940;4.034;2023-02-23T11:32:59;11.00;99.90
52267;DHT22;38223;50.940;4.034;2023-02-23T11:35:32;11.30;99.90
52267;DHT22;38223;50.940;4.034;2023-02-23T11:38:21;11.40;99.90
52267;DHT22;38223;50.940;4.034;2023-02-23T11:40:45;11.30;99.90
52267;DHT22;38223;50.940;4.034;2023-02-23T11:43:14;11.00;99.90
52267;DHT22;38223;50.940;4.034;2023-02-23T11:45:51;11.00;99.90
52267;DHT22;38223;50.940;4.034;2023-02-23T11:48:30;11.30;99.90
52267;DHT22;38223;50.940;4.034;2023-02-23T11:51:00;11.50;99.90
52267;DHT22;38223;50.940;4.034;2023-02-23T11:53:34;11.50;99.90
52267;DHT22;38223;50.940;4.034;2023-02-23T11:56:06;11.30;99.90
52267;DHT22;38223;50.940;4.034;2023-02-23T11:58:46;11.30;99.90
52267;DHT22;38223;50.940;4.034;2023-02-23T12:01:19;11.40;99.90
52267;DHT22;38223;50.940;4.034;2023-02-23T12:03:52;11.20;99.90
52267;DHT22;38223;50.940;4.034;2023-02-23T12:06:25;11.00;99.90
52267;DHT22;38223;50.940;4.034;2023-02-23T12:11:36;11.10;99.90
52267;DHT22;38223;50.940;4.034;2023-02-23T12:14:19;11.10;99.90
52267;DHT22;38223;50.940;4.034;2023-02-23T12:16:45;11.00;99.90
52267;DHT22;38223;50.940;4.034;2023-02-23T12:19:23;11.10;99.90
52267;DHT22;38223;50.940;4.034;2023-02-23T12:22:22;11.40;99.90
52267;DHT22;38223;50.940;4.034;2023-02-23T12:25:04;11.50;99.90
52267;DHT22;38223;50.940;4.034;2023-02-23T12:27:43;11.50;99.90
52267;DHT22;38223;50.940;4.034;2023-02-23T12:30:31;11.50;99.90
52267;DHT22;38223;50.940;4.034;2023-02-23T12:33:12;11.40;99.90
52267;DHT22;38223;50.940;4.034;2023-02-23T12:38:36;11.60;99.90
52267;DHT22;38223;50.940;4.034;2023-02-23T12:41:11;11.60;99.90
52267;DHT22;38223;50.940;4.034;2023-02-23T12:46:23;11.30;99.90
52267;DHT22;38223;50.940;4.034;2023-02-23T12:51:52;11.40;99.90
52267;DHT22;38223;50.940;4.034;2023-02-23T12:54:17;11.40;99.90
52267;DHT22;38223;50.940;4.034;2023-02-23T13:02:43;11.80;99.90
52267;DHT22;38223;50.940;4.034;2023-02-23T13:05:15;11.60;99.90
52267;DHT22;38223;50.940;4.034;2023-02-23T13:08:01;11.60;99.90
52267;DHT22;38223;50.940;4.034;2023-02-23T13:10:36;11.80;99.90
52267;DHT22;38223;50.940;4.034;2023-02-23T13:13:36;11.80;99.90
52267;DHT22;38223;50.940;4.034;2023-02-23T13:21:38;11.80;99.90
52267;DHT22;38223;50.940;4.034;2023-02-23T13:24:12;11.90;99.90
52267;DHT22;38223;50.940;4.034;2023-02-23T13:29:40;12.10;99.90
52267;DHT22;38223;50.940;4.034;2023-02-23T13:32:14;12.30;99.90
52267;DHT22;38223;50.940;4.034;2023-02-23T13:35:02;12.30;99.90
52267;DHT22;38223;50.940;4.034;2023-02-23T13:43:22;12.20;99.90
52267;DHT22;38223;50.940;4.034;2023-02-23T13:46:01;12.30;99.90
52267;DHT22;38223;50.940;4.034;2023-02-23T13:48:50;12.30;99.90
52267;DHT22;38223;50.940;4.034;2023-02-23T13:54:05;12.40;99.90
52267;DHT22;38223;50.940;4.034;2023-02-23T13:56:30;12.30;99.90
52267;DHT22;38223;50.940;4.034;2023-02-23T13:59:00;12.30;99.90
52267;DHT22;38223;50.940;4.034;2023-02-23T14:01:42;12.10;99.90
52267;DHT22;38223;50.940;4.034;2023-02-23T14:04:06;11.80;99.90
52267;DHT22;38223;50.940;4.034;2023-02-23T14:06:37;11.40;99.90
52267;DHT22;38223;50.940;4.034;2023-02-23T14:09:17;11.30;99.90
52267;DHT22;38223;50.940;4.034;2023-02-23T14:11:51;11.30;99.90
52267;DHT22;38223;50.940;4.034;2023-02-23T14:25:50;11.30;99.90
52267;DHT22;38223;50.940;4.034;2023-02-23T14:28:36;11.20;99.90
52267;DHT22;38223;50.940;4.034;2023-02-23T14:36:32;11.50;99.90
52267;DHT22;38223;50.940;4.034;2023-02-23T14:41:58;11.80;99.90
52267;DHT22;38223;50.940;4.034;2023-02-23T14:44:37;11.80;99.90
52267;DHT22;38223;50.940;4.034;2023-02-23T14:47:19;11.50;99.90
52267;DHT22;38223;50.940;4.034;2023-02-23T14:50:03;11.20;99.90
52267;DHT22;38223;50.940;4.034;2023-02-23T14:52:42;11.10;99.90
52267;DHT22;38223;50.940;4.034;2023-02-23T14:55:21;11.00;99.90
52267;DHT22;38223;50.940;4.034;2023-02-23T14:57:54;10.80;99.90
52267;DHT22;38223;50.940;4.034;2023-02-23T15:00:28;10.70;99.90
52267;DHT22;38223;50.940;4.034;2023-02-23T15:03:10;10.70;99.90
52267;DHT22;38223;50.940;4.034;2023-02-23T15:05:59;10.60;99.90
52267;DHT22;38223;50.940;4.034;2023-02-23T15:08:29;10.70;99.90
52267;DHT22;38223;50.940;4.034;2023-02-23T15:11:03;10.80;99.90
52267;DHT22;38223;50.940;4.034;2023-02-23T15:13:37;11.00;99.90
52267;DHT22;38223;50.940;4.034;2023-02-23T15:16:11;10.80;99.90
52267;DHT22;38223;50.940;4.034;2023-02-23T15:18:41;11.00;99.90
52267;DHT22;38223;50.940;4.034;2023-02-23T15:21:20;11.10;99.90
52267;DHT22;38223;50.940;4.034;2023-02-23T15:24:13;11.20;99.90
52267;DHT22;38223;50.940;4.034;2023-02-23T15:26:28;11.30;99.90
52267;DHT22;38223;50.940;4.034;2023-02-23T15:31:41;11.20;99.90
52267;DHT22;38223;50.940;4.034;2023-02-23T15:34:25;11.30;99.90
52267;DHT22;38223;50.940;4.034;2023-02-23T15:37:06;11.50;99.90
52267;DHT22;38223;50.940;4.034;2023-02-23T15:39:49;11.70;99.90
52267;DHT22;38223;50.940;4.034;2023-02-23T15:42:19;11.90;99.90
52267;DHT22;38223;50.940;4.034;2023-02-23T15:45:03;11.90;99.90
52267;DHT22;38223;50.940;4.034;2023-02-23T15:47:34;11.60;99.90
52267;DHT22;38223;50.940;4.034;2023-02-23T15:50:15;11.40;99.90
52267;DHT22;38223;50.940;4.034;2023-02-23T15:52:33;11.20;99.90
52267;DHT22;38223;50.940;4.034;2023-02-23T15:55:06;11.10;99.90
52267;DHT22;38223;50.940;4.034;2023-02-23T15:58:01;10.90;99.90
52267;DHT22;38223;50.940;4.034;2023-02-23T16:00:40;10.90;99.90
52267;DHT22;38223;50.940;4.034;2023-02-23T16:03:22;11.10;99.90
52267;DHT22;38223;50.940;4.034;2023-02-23T16:06:04;11.30;99.90
52267;DHT22;38223;50.940;4.034;2023-02-23T16:08:33;11.60;99.90
52267;DHT22;38223;50.940;4.034;2023-02-23T16:11:12;11.70;99.90
52267;DHT22;38223;50.940;4.034;2023-02-23T16:13:44;11.50;99.90
52267;DHT22;38223;50.940;4.034;2023-02-23T16:16:16;11.40;99.90
52267;DHT22;38223;50.940;4.034;2023-02-23T16:18:52;11.60;99.90
52267;DHT22;38223;50.940;4.034;2023-02-23T16:21:23;11.70;99.90
52267;DHT22;38223;50.940;4.034;2023-02-23T16:23:54;11.90;99.90
52267;DHT22;38223;50.940;4.034;2023-02-23T16:26:33;11.90;99.90
52267;DHT22;38223;50.940;4.034;2023-02-23T16:28:59;11.90;99.90
52267;DHT22;38223;50.940;4.034;2023-02-23T16:31:54;11.90;99.90
52267;DHT22;38223;50.940;4.034;2023-02-23T16:34:01;11.80;99.90
52267;DHT22;38223;50.940;4.034;2023-02-23T16:36:36;11.80;99.90
52267;DHT22;38223;50.940;4.034;2023-02-23T16:39:11;11.50;99.90
52267;DHT22;38223;50.940;4.034;2023-02-23T16:41:41;11.50;99.90
52267;DHT22;38223;50.940;4.034;2023-02-23T16:44:16;11.30;99.90
52267;DHT22;38223;50.940;4.034;2023-02-23T16:49:33;11.40;99.90
52267;DHT22;38223;50.940;4.034;2023-02-23T16:52:05;11.30;99.90
52267;DHT22;38223;50.940;4.034;2023-02-23T16:54:34;11.30;99.90
52267;DHT22;38223;50.940;4.034;2023-02-23T16:57:02;11.10;99.90
52267;DHT22;38223;50.940;4.034;2023-02-23T16:59:31;10.90;99.90
52267;DHT22;38223;50.940;4.034;2023-02-23T17:02:00;10.80;99.90
52267;DHT22;38223;50.940;4.034;2023-02-23T17:04:28;10.80;99.90
52267;DHT22;38223;50.940;4.034;2023-02-23T17:06:55;10.90;99.90
52267;DHT22;38223;50.940;4.034;2023-02-23T17:09:25;11.00;99.90
52267;DHT22;38223;50.940;4.034;2023-02-23T17:11:54;10.90;99.90
52267;DHT22;38223;50.940;4.034;2023-02-23T17:14:27;10.90;99.90
52267;DHT22;38223;50.940;4.034;2023-02-23T17:16:59;10.90;99.90
52267;DHT22;38223;50.940;4.034;2023-02-23T17:19:33;10.80;99.90
52267;DHT22;38223;50.940;4.034;2023-02-23T17:22:06;10.80;99.90
52267;DHT22;38223;50.940;4.034;2023-02-23T17:24:33;10.80;99.90
52267;DHT22;38223;50.940;4.034;2023-02-23T17:27:01;10.70;99.90
52267;DHT22;38223;50.940;4.034;2023-02-23T17:29:29;10.70;99.90
52267;DHT22;38223;50.940;4.034;2023-02-23T17:31:57;10.80;99.90
52267;DHT22;38223;50.940;4.034;2023-02-23T17:34:26;10.80;99.90
52267;DHT22;38223;50.940;4.034;2023-02-23T17:36:54;10.70;99.90
52267;DHT22;38223;50.940;4.034;2023-02-23T17:39:21;10.80;99.90
52267;DHT22;38223;50.940;4.034;2023-02-23T17:41:53;11.00;99.90
52267;DHT22;38223;50.940;4.034;2023-02-23T17:44:21;10.90;99.90
52267;DHT22;38223;50.940;4.034;2023-02-23T17:46:49;11.10;99.90
52267;DHT22;38223;50.940;4.034;2023-02-23T17:49:17;11.20;99.90
52267;DHT22;38223;50.940;4.034;2023-02-23T17:51:44;11.10;99.90
52267;DHT22;38223;50.940;4.034;2023-02-23T17:54:16;11.10;99.90
52267;DHT22;38223;50.940;4.034;2023-02-23T17:56:51;11.20;99.90
52267;DHT22;38223;50.940;4.034;2023-02-23T17:59:23;11.20;99.90